sensor_id;sensor_type;location;lat;lon;timestamp;temperature;humidity
14252;DHT22;7210;51.502;10.722;2022-08-19T00:00:40;19.60;1.00
14252;DHT22;7210;51.502;10.722;2022-08-19T00:03:07;19.60;1.00
14252;DHT22;7210;51.502;10.722;2022-08-19T00:05:35;19.60;1.00
14252;DHT22;7210;51.502;10.722;2022-08-19T00:08:03;19.60;1.00
14252;DHT22;7210;51.502;10.722;2022-08-19T00:10:32;19.60;1.00
14252;DHT22;7210;51.502;10.722;2022-08-19T00:12:59;19.60;1.00
14252;DHT22;7210;51.502;10.722;2022-08-19T00:15:26;19.60;1.00
14252;DHT22;7210;51.502;10.722;2022-08-19T00:17:54;19.50;1.00
14252;DHT22;7210;51.502;10.722;2022-08-19T00:20:22;19.50;1.00
14252;DHT22;7210;51.502;10.722;2022-08-19T00:22:49;19.50;1.00
14252;DHT22;7210;51.502;10.722;2022-08-19T00:25:17;19.50;1.00
14252;DHT22;7210;51.502;10.722;2022-08-19T00:27:46;19.60;1.00
14252;DHT22;7210;51.502;10.722;2022-08-19T00:30:14;19.50;1.00
14252;DHT22;7210;51.502;10.722;2022-08-19T00:32:41;19.60;1.00
14252;DHT22;7210;51.502;10.722;2022-08-19T00:35:09;19.70;1.00
14252;DHT22;7210;51.502;10.722;2022-08-19T00:37:37;19.60;1.00
14252;DHT22;7210;51.502;10.722;2022-08-19T00:40:07;19.60;1.00
14252;DHT22;7210;51.502;10.722;2022-08-19T00:42:35;19.60;1.00
14252;DHT22;7210;51.502;10.722;2022-08-19T00:45:11;19.50;1.00
14252;DHT22;7210;51.502;10.722;2022-08-19T00:47:43;19.50;1.00
14252;DHT22;7210;51.502;10.722;2022-08-19T00:50:13;19.60;1.00
14252;DHT22;7210;51.502;10.722;2022-08-19T00:52:45;19.60;1.00
14252;DHT22;7210;51.502;10.722;2022-08-19T00:55:19;19.60;1.00
14252;DHT22;7210;51.502;10.722;2022-08-19T00:57:52;19.60;1.00
14252;DHT22;7210;51.502;10.722;2022-08-19T01:00:24;19.70;1.00
14252;DHT22;7210;51.502;10.722;2022-08-19T01:02:53;19.60;1.00
14252;DHT22;7210;51.502;10.722;2022-08-19T01:05:23;19.70;1.00
14252;DHT22;7210;51.502;10.722;2022-08-19T01:08:02;19.60;1.00
14252;DHT22;7210;51.502;10.722;2022-08-19T01:10:33;19.60;1.00
14252;DHT22;7210;51.502;10.722;2022-08-19T01:13:04;19.60;1.00
14252;DHT22;7210;51.502;10.722;2022-08-19T01:15:35;19.50;1.00
14252;DHT22;7210;51.502;10.722;2022-08-19T01:18:09;19.50;1.00
14252;DHT22;7210;51.502;10.722;2022-08-19T01:20:40;19.50;1.00
14252;DHT22;7210;51.502;10.722;2022-08-19T01:23:09;19.40;1.00
14252;DHT22;7210;51.502;10.722;2022-08-19T01:25:42;19.40;1.00
14252;DHT22;7210;51.502;10.722;2022-08-19T01:28:17;19.40;1.00
14252;DHT22;7210;51.502;10.722;2022-08-19T01:30:47;19.40;1.00
14252;DHT22;7210;51.502;10.722;2022-08-19T01:33:15;19.40;1.00
14252;DHT22;7210;51.502;10.722;2022-08-19T01:35:43;19.40;1.00
14252;DHT22;7210;51.502;10.722;2022-08-19T01:38:22;19.40;1.00
14252;DHT22;7210;51.502;10.722;2022-08-19T01:40:51;19.40;1.00
14252;DHT22;7210;51.502;10.722;2022-08-19T01:43:19;19.50;1.00
14252;DHT22;7210;51.502;10.722;2022-08-19T01:45:46;19.50;1.00
14252;DHT22;7210;51.502;10.722;2022-08-19T01:48:14;19.50;1.00
14252;DHT22;7210;51.502;10.722;2022-08-19T01:50:41;19.50;1.00
14252;DHT22;7210;51.502;10.722;2022-08-19T01:53:11;19.50;1.00
14252;DHT22;7210;51.502;10.722;2022-08-19T01:55:41;19.40;1.00
14252;DHT22;7210;51.502;10.722;2022-08-19T01:58:13;19.40;1.00
14252;DHT22;7210;51.502;10.722;2022-08-19T02:00:44;19.50;1.00
14252;DHT22;7210;51.502;10.722;2022-08-19T02:03:12;19.50;1.00
14252;DHT22;7210;51.502;10.722;2022-08-19T02:05:40;19.50;1.00
14252;DHT22;7210;51.502;10.722;2022-08-19T02:11:19;19.50;1.00
14252;DHT22;7210;51.502;10.722;2022-08-19T02:13:47;19.40;1.00
14252;DHT22;7210;51.502;10.722;2022-08-19T02:16:16;19.40;1.00
14252;DHT22;7210;51.502;10.722;2022-08-19T02:22:00;19.40;1.00
14252;DHT22;7210;51.502;10.722;2022-08-19T02:24:27;19.40;1.00
14252;DHT22;7210;51.502;10.722;2022-08-19T02:27:01;19.40;1.00
14252;DHT22;7210;51.502;10.722;2022-08-19T02:29:28;19.30;1.00
14252;DHT22;7210;51.502;10.722;2022-08-19T02:31:56;19.30;1.00
14252;DHT22;7210;51.502;10.722;2022-08-19T02:34:23;19.40;1.00
14252;DHT22;7210;51.502;10.722;2022-08-19T02:36:51;19.30;1.00
14252;DHT22;7210;51.502;10.722;2022-08-19T02:39:18;19.30;1.00
14252;DHT22;7210;51.502;10.722;2022-08-19T02:41:44;19.30;1.00
14252;DHT22;7210;51.502;10.722;2022-08-19T02:44:15;19.30;1.00
14252;DHT22;7210;51.502;10.722;2022-08-19T02:46:42;19.30;1.00
14252;DHT22;7210;51.502;10.722;2022-08-19T02:49:12;19.30;1.00
14252;DHT22;7210;51.502;10.722;2022-08-19T02:51:44;19.30;1.00
14252;DHT22;7210;51.502;10.722;2022-08-19T02:54:17;19.30;1.00
14252;DHT22;7210;51.502;10.722;2022-08-19T02:56:48;19.20;1.00
14252;DHT22;7210;51.502;10.722;2022-08-19T02:59:16;19.20;1.00
14252;DHT22;7210;51.502;10.722;2022-08-19T03:01:43;19.20;1.00
14252;DHT22;7210;51.502;10.722;2022-08-19T03:04:14;19.10;1.00
14252;DHT22;7210;51.502;10.722;2022-08-19T03:06:45;19.10;1.00
14252;DHT22;7210;51.502;10.722;2022-08-19T03:09:15;19.10;1.00
14252;DHT22;7210;51.502;10.722;2022-08-19T03:11:44;19.00;1.00
14252;DHT22;7210;51.502;10.722;2022-08-19T03:14:11;19.10;1.00
14252;DHT22;7210;51.502;10.722;2022-08-19T03:16:44;19.00;1.00
14252;DHT22;7210;51.502;10.722;2022-08-19T03:19:13;19.10;1.00
14252;DHT22;7210;51.502;10.722;2022-08-19T03:21:43;19.00;1.00
14252;DHT22;7210;51.502;10.722;2022-08-19T03:24:12;19.00;1.00
14252;DHT22;7210;51.502;10.722;2022-08-19T03:26:42;19.10;1.00
14252;DHT22;7210;51.502;10.722;2022-08-19T03:29:12;19.10;1.00
14252;DHT22;7210;51.502;10.722;2022-08-19T03:31:42;19.20;1.00
14252;DHT22;7210;51.502;10.722;2022-08-19T03:34:10;19.20;1.00
14252;DHT22;7210;51.502;10.722;2022-08-19T03:36:39;19.20;1.00
14252;DHT22;7210;51.502;10.722;2022-08-19T03:39:06;19.10;1.00
14252;DHT22;7210;51.502;10.722;2022-08-19T03:41:37;19.20;1.00
14252;DHT22;7210;51.502;10.722;2022-08-19T03:44:06;19.20;1.00
14252;DHT22;7210;51.502;10.722;2022-08-19T03:46:50;19.20;1.00
14252;DHT22;7210;51.502;10.722;2022-08-19T03:49:30;19.20;1.00
14252;DHT22;7210;51.502;10.722;2022-08-19T03:51:58;19.10;1.00
14252;DHT22;7210;51.502;10.722;2022-08-19T03:54:27;19.20;1.00
14252;DHT22;7210;51.502;10.722;2022-08-19T03:56:56;19.20;1.00
14252;DHT22;7210;51.502;10.722;2022-08-19T03:59:26;19.10;1.00
14252;DHT22;7210;51.502;10.722;2022-08-19T04:02:05;19.00;1.00
14252;DHT22;7210;51.502;10.722;2022-08-19T04:04:35;19.10;1.00
14252;DHT22;7210;51.502;10.722;2022-08-19T04:07:04;19.10;1.00
14252;DHT22;7210;51.502;10.722;2022-08-19T04:09:33;19.10;1.00
14252;DHT22;7210;51.502;10.722;2022-08-19T04:12:03;19.10;1.00
14252;DHT22;7210;51.502;10.722;2022-08-19T04:14:32;19.00;1.00
14252;DHT22;7210;51.502;10.722;2022-08-19T04:17:02;19.00;1.00
14252;DHT22;7210;51.502;10.722;2022-08-19T04:19:31;19.00;1.00
14252;DHT22;7210;51.502;10.722;2022-08-19T04:22:00;19.00;1.00
14252;DHT22;7210;51.502;10.722;2022-08-19T04:24:28;19.00;1.00
14252;DHT22;7210;51.502;10.722;2022-08-19T04:26:56;18.90;1.00
14252;DHT22;7210;51.502;10.722;2022-08-19T04:29:26;19.00;1.00
14252;DHT22;7210;51.502;10.722;2022-08-19T04:31:55;19.00;1.00
14252;DHT22;7210;51.502;10.722;2022-08-19T04:34:27;19.00;1.00
14252;DHT22;7210;51.502;10.722;2022-08-19T04:36:57;19.00;1.00
14252;DHT22;7210;51.502;10.722;2022-08-19T04:39:28;19.00;1.00
14252;DHT22;7210;51.502;10.722;2022-08-19T04:42:10;19.00;1.00
14252;DHT22;7210;51.502;10.722;2022-08-19T04:44:55;19.00;1.00
14252;DHT22;7210;51.502;10.722;2022-08-19T04:47:24;18.90;1.00
14252;DHT22;7210;51.502;10.722;2022-08-19T04:49:52;18.90;1.00
14252;DHT22;7210;51.502;10.722;2022-08-19T04:52:20;18.90;1.00
14252;DHT22;7210;51.502;10.722;2022-08-19T04:54:47;18.90;1.00
14252;DHT22;7210;51.502;10.722;2022-08-19T04:57:16;18.90;1.00
14252;DHT22;7210;51.502;10.722;2022-08-19T04:59:43;18.90;1.00
14252;DHT22;7210;51.502;10.722;2022-08-19T05:02:12;19.00;1.00
14252;DHT22;7210;51.502;10.722;2022-08-19T05:04:39;18.90;1.00
14252;DHT22;7210;51.502;10.722;2022-08-19T05:07:08;19.00;1.00
14252;DHT22;7210;51.502;10.722;2022-08-19T05:09:35;19.00;1.00
14252;DHT22;7210;51.502;10.722;2022-08-19T05:12:03;19.00;1.00
14252;DHT22;7210;51.502;10.722;2022-08-19T05:14:31;18.90;1.00
14252;DHT22;7210;51.502;10.722;2022-08-19T05:17:00;19.00;1.00
14252;DHT22;7210;51.502;10.722;2022-08-19T05:19:28;19.00;1.00
14252;DHT22;7210;51.502;10.722;2022-08-19T05:22:14;19.00;1.00
14252;DHT22;7210;51.502;10.722;2022-08-19T05:25:16;19.00;1.00
14252;DHT22;7210;51.502;10.722;2022-08-19T05:31:21;19.00;1.00
14252;DHT22;7210;51.502;10.722;2022-08-19T05:33:48;19.10;1.00
14252;DHT22;7210;51.502;10.722;2022-08-19T05:36:15;19.10;1.00
14252;DHT22;7210;51.502;10.722;2022-08-19T05:38:45;19.10;1.00
14252;DHT22;7210;51.502;10.722;2022-08-19T05:41:15;19.10;1.00
14252;DHT22;7210;51.502;10.722;2022-08-19T05:43:42;19.20;1.00
14252;DHT22;7210;51.502;10.722;2022-08-19T05:46:16;19.20;1.00
14252;DHT22;7210;51.502;10.722;2022-08-19T05:48:44;19.20;1.00
14252;DHT22;7210;51.502;10.722;2022-08-19T05:51:12;19.20;1.00
14252;DHT22;7210;51.502;10.722;2022-08-19T05:53:42;19.30;1.00
14252;DHT22;7210;51.502;10.722;2022-08-19T05:56:13;19.30;1.00
14252;DHT22;7210;51.502;10.722;2022-08-19T05:58:44;19.20;1.00
14252;DHT22;7210;51.502;10.722;2022-08-19T06:01:15;19.20;1.00
14252;DHT22;7210;51.502;10.722;2022-08-19T06:03:45;19.20;1.00
14252;DHT22;7210;51.502;10.722;2022-08-19T06:06:15;19.30;1.00
14252;DHT22;7210;51.502;10.722;2022-08-19T06:08:44;19.30;1.00
14252;DHT22;7210;51.502;10.722;2022-08-19T06:11:20;19.30;1.00
14252;DHT22;7210;51.502;10.722;2022-08-19T06:13:50;19.40;1.00
14252;DHT22;7210;51.502;10.722;2022-08-19T06:16:19;19.40;1.00
14252;DHT22;7210;51.502;10.722;2022-08-19T06:18:49;19.50;1.00
14252;DHT22;7210;51.502;10.722;2022-08-19T06:21:20;19.50;1.00
14252;DHT22;7210;51.502;10.722;2022-08-19T06:23:52;19.50;1.00
14252;DHT22;7210;51.502;10.722;2022-08-19T06:26:24;19.40;1.00
14252;DHT22;7210;51.502;10.722;2022-08-19T06:28:52;19.50;1.00
14252;DHT22;7210;51.502;10.722;2022-08-19T06:31:22;19.50;1.00
14252;DHT22;7210;51.502;10.722;2022-08-19T06:34:00;19.50;1.00
14252;DHT22;7210;51.502;10.722;2022-08-19T06:36:31;19.50;1.00
14252;DHT22;7210;51.502;10.722;2022-08-19T06:39:00;19.50;1.00
14252;DHT22;7210;51.502;10.722;2022-08-19T06:41:30;19.60;1.00
14252;DHT22;7210;51.502;10.722;2022-08-19T06:44:00;19.60;1.00
14252;DHT22;7210;51.502;10.722;2022-08-19T06:46:28;19.60;1.00
14252;DHT22;7210;51.502;10.722;2022-08-19T06:49:00;19.60;1.00
14252;DHT22;7210;51.502;10.722;2022-08-19T06:51:27;19.60;1.00
14252;DHT22;7210;51.502;10.722;2022-08-19T06:53:57;19.60;1.00
14252;DHT22;7210;51.502;10.722;2022-08-19T06:56:26;19.70;1.00
14252;DHT22;7210;51.502;10.722;2022-08-19T06:59:01;19.70;1.00
14252;DHT22;7210;51.502;10.722;2022-08-19T07:01:34;19.70;1.00
14252;DHT22;7210;51.502;10.722;2022-08-19T07:04:04;19.70;1.00
14252;DHT22;7210;51.502;10.722;2022-08-19T07:06:33;19.90;1.00
14252;DHT22;7210;51.502;10.722;2022-08-19T07:09:01;19.80;1.00
14252;DHT22;7210;51.502;10.722;2022-08-19T07:11:29;19.80;1.00
14252;DHT22;7210;51.502;10.722;2022-08-19T07:14:02;19.80;1.00
14252;DHT22;7210;51.502;10.722;2022-08-19T07:16:29;19.80;1.00
14252;DHT22;7210;51.502;10.722;2022-08-19T07:18:57;19.90;1.00
14252;DHT22;7210;51.502;10.722;2022-08-19T07:21:27;19.80;1.00
14252;DHT22;7210;51.502;10.722;2022-08-19T07:23:56;20.00;1.00
14252;DHT22;7210;51.502;10.722;2022-08-19T07:26:26;19.90;1.00
14252;DHT22;7210;51.502;10.722;2022-08-19T07:28:56;19.90;1.00
14252;DHT22;7210;51.502;10.722;2022-08-19T07:31:27;19.90;1.00
14252;DHT22;7210;51.502;10.722;2022-08-19T07:33:58;19.90;1.00
14252;DHT22;7210;51.502;10.722;2022-08-19T07:36:30;19.90;1.00
14252;DHT22;7210;51.502;10.722;2022-08-19T07:38:59;19.90;1.00
14252;DHT22;7210;51.502;10.722;2022-08-19T07:41:29;19.90;1.00
14252;DHT22;7210;51.502;10.722;2022-08-19T07:43:58;19.90;1.00
14252;DHT22;7210;51.502;10.722;2022-08-19T07:46:31;19.90;1.00
14252;DHT22;7210;51.502;10.722;2022-08-19T07:48:58;19.80;1.00
14252;DHT22;7210;51.502;10.722;2022-08-19T07:51:27;19.80;1.00
14252;DHT22;7210;51.502;10.722;2022-08-19T07:53:55;19.80;1.00
14252;DHT22;7210;51.502;10.722;2022-08-19T07:56:23;19.80;1.00
14252;DHT22;7210;51.502;10.722;2022-08-19T07:58:51;19.80;1.00
14252;DHT22;7210;51.502;10.722;2022-08-19T08:01:22;19.70;1.00
14252;DHT22;7210;51.502;10.722;2022-08-19T08:03:54;19.70;1.00
14252;DHT22;7210;51.502;10.722;2022-08-19T08:06:40;19.70;1.00
14252;DHT22;7210;51.502;10.722;2022-08-19T08:09:29;19.70;1.00
14252;DHT22;7210;51.502;10.722;2022-08-19T08:12:00;19.70;1.00
14252;DHT22;7210;51.502;10.722;2022-08-19T08:14:32;19.70;1.00
14252;DHT22;7210;51.502;10.722;2022-08-19T08:17:03;19.70;1.00
14252;DHT22;7210;51.502;10.722;2022-08-19T08:19:33;19.70;1.00
14252;DHT22;7210;51.502;10.722;2022-08-19T08:22:02;19.70;1.00
14252;DHT22;7210;51.502;10.722;2022-08-19T08:24:31;19.70;1.00
14252;DHT22;7210;51.502;10.722;2022-08-19T08:27:00;19.80;1.00
14252;DHT22;7210;51.502;10.722;2022-08-19T08:29:33;19.80;1.00
14252;DHT22;7210;51.502;10.722;2022-08-19T08:32:00;19.80;1.00
14252;DHT22;7210;51.502;10.722;2022-08-19T08:34:29;19.80;1.00
14252;DHT22;7210;51.502;10.722;2022-08-19T08:36:59;19.80;1.00
14252;DHT22;7210;51.502;10.722;2022-08-19T08:39:29;19.80;1.00
14252;DHT22;7210;51.502;10.722;2022-08-19T08:42:08;19.80;1.00
14252;DHT22;7210;51.502;10.722;2022-08-19T08:44:47;19.90;1.00
14252;DHT22;7210;51.502;10.722;2022-08-19T08:47:22;19.90;1.00
14252;DHT22;7210;51.502;10.722;2022-08-19T08:49:56;19.90;1.00
14252;DHT22;7210;51.502;10.722;2022-08-19T08:52:32;19.90;1.00
14252;DHT22;7210;51.502;10.722;2022-08-19T08:55:07;20.00;1.00
14252;DHT22;7210;51.502;10.722;2022-08-19T08:57:40;20.00;1.00
14252;DHT22;7210;51.502;10.722;2022-08-19T09:00:21;20.10;1.00
14252;DHT22;7210;51.502;10.722;2022-08-19T09:02:52;20.10;1.00
14252;DHT22;7210;51.502;10.722;2022-08-19T09:05:23;20.30;1.00
14252;DHT22;7210;51.502;10.722;2022-08-19T09:08:02;20.30;1.00
14252;DHT22;7210;51.502;10.722;2022-08-19T09:10:38;20.40;1.00
14252;DHT22;7210;51.502;10.722;2022-08-19T09:13:14;20.40;1.00
14252;DHT22;7210;51.502;10.722;2022-08-19T09:15:56;20.40;1.00
14252;DHT22;7210;51.502;10.722;2022-08-19T09:18:39;20.40;1.00
14252;DHT22;7210;51.502;10.722;2022-08-19T09:21:08;20.50;1.00
14252;DHT22;7210;51.502;10.722;2022-08-19T09:23:41;20.50;1.00
14252;DHT22;7210;51.502;10.722;2022-08-19T09:26:19;20.50;1.00
14252;DHT22;7210;51.502;10.722;2022-08-19T09:28:52;20.60;1.00
14252;DHT22;7210;51.502;10.722;2022-08-19T09:31:26;20.60;1.00
14252;DHT22;7210;51.502;10.722;2022-08-19T09:33:55;20.80;1.00
14252;DHT22;7210;51.502;10.722;2022-08-19T09:36:26;20.90;1.00
14252;DHT22;7210;51.502;10.722;2022-08-19T09:38:59;21.00;1.00
14252;DHT22;7210;51.502;10.722;2022-08-19T09:41:27;21.10;1.00
14252;DHT22;7210;51.502;10.722;2022-08-19T09:43:56;21.30;1.00
14252;DHT22;7210;51.502;10.722;2022-08-19T09:46:26;21.50;1.00
14252;DHT22;7210;51.502;10.722;2022-08-19T09:48:58;21.70;1.00
14252;DHT22;7210;51.502;10.722;2022-08-19T09:51:27;21.90;1.00
14252;DHT22;7210;51.502;10.722;2022-08-19T09:54:01;22.10;1.00
14252;DHT22;7210;51.502;10.722;2022-08-19T09:56:31;22.20;1.00
14252;DHT22;7210;51.502;10.722;2022-08-19T09:58:59;22.20;1.00
14252;DHT22;7210;51.502;10.722;2022-08-19T10:01:29;22.20;1.00
14252;DHT22;7210;51.502;10.722;2022-08-19T10:03:59;22.20;1.00
14252;DHT22;7210;51.502;10.722;2022-08-19T10:06:29;22.20;1.00
14252;DHT22;7210;51.502;10.722;2022-08-19T10:08:58;22.30;1.00
14252;DHT22;7210;51.502;10.722;2022-08-19T10:11:27;22.20;1.00
14252;DHT22;7210;51.502;10.722;2022-08-19T10:13:55;22.20;1.00
14252;DHT22;7210;51.502;10.722;2022-08-19T10:16:23;22.30;1.00
14252;DHT22;7210;51.502;10.722;2022-08-19T10:18:51;22.40;1.00
14252;DHT22;7210;51.502;10.722;2022-08-19T10:21:22;22.50;1.00
14252;DHT22;7210;51.502;10.722;2022-08-19T10:23:53;22.70;1.00
14252;DHT22;7210;51.502;10.722;2022-08-19T10:26:24;22.70;1.00
14252;DHT22;7210;51.502;10.722;2022-08-19T10:28:56;22.70;1.00
14252;DHT22;7210;51.502;10.722;2022-08-19T10:31:26;22.70;1.00
14252;DHT22;7210;51.502;10.722;2022-08-19T10:33:56;22.90;1.00
14252;DHT22;7210;51.502;10.722;2022-08-19T10:36:27;22.90;1.00
14252;DHT22;7210;51.502;10.722;2022-08-19T10:38:58;22.90;1.00
14252;DHT22;7210;51.502;10.722;2022-08-19T10:41:31;23.00;1.00
14252;DHT22;7210;51.502;10.722;2022-08-19T10:44:02;23.00;1.00
14252;DHT22;7210;51.502;10.722;2022-08-19T10:46:34;23.10;1.00
14252;DHT22;7210;51.502;10.722;2022-08-19T10:49:05;23.30;1.00
14252;DHT22;7210;51.502;10.722;2022-08-19T10:51:32;23.40;1.00
14252;DHT22;7210;51.502;10.722;2022-08-19T10:54:17;23.60;1.00
14252;DHT22;7210;51.502;10.722;2022-08-19T10:56:46;23.80;1.00
14252;DHT22;7210;51.502;10.722;2022-08-19T10:59:21;23.80;1.00
14252;DHT22;7210;51.502;10.722;2022-08-19T11:01:50;23.70;1.00
14252;DHT22;7210;51.502;10.722;2022-08-19T11:04:19;23.80;1.00
14252;DHT22;7210;51.502;10.722;2022-08-19T11:06:48;23.70;1.00
14252;DHT22;7210;51.502;10.722;2022-08-19T11:09:20;23.80;1.00
14252;DHT22;7210;51.502;10.722;2022-08-19T11:11:52;23.70;1.00
14252;DHT22;7210;51.502;10.722;2022-08-19T11:14:21;23.80;1.00
14252;DHT22;7210;51.502;10.722;2022-08-19T11:16:50;23.70;1.00
14252;DHT22;7210;51.502;10.722;2022-08-19T11:19:18;23.60;1.00
14252;DHT22;7210;51.502;10.722;2022-08-19T11:21:48;23.40;1.00
14252;DHT22;7210;51.502;10.722;2022-08-19T11:24:17;23.40;1.00
14252;DHT22;7210;51.502;10.722;2022-08-19T11:26:48;23.40;1.00
14252;DHT22;7210;51.502;10.722;2022-08-19T11:29:20;23.40;1.00
14252;DHT22;7210;51.502;10.722;2022-08-19T11:31:51;23.50;1.00
14252;DHT22;7210;51.502;10.722;2022-08-19T11:34:20;23.90;1.00
14252;DHT22;7210;51.502;10.722;2022-08-19T11:36:50;24.00;1.00
14252;DHT22;7210;51.502;10.722;2022-08-19T11:39:21;24.30;1.00
14252;DHT22;7210;51.502;10.722;2022-08-19T11:41:48;24.60;1.00
14252;DHT22;7210;51.502;10.722;2022-08-19T11:44:16;25.00;1.00
14252;DHT22;7210;51.502;10.722;2022-08-19T11:46:45;25.20;1.00
14252;DHT22;7210;51.502;10.722;2022-08-19T11:49:13;25.30;1.50
14252;DHT22;7210;51.502;10.722;2022-08-19T11:51:42;25.50;4.50
14252;DHT22;7210;51.502;10.722;2022-08-19T11:54:10;25.60;2.20
14252;DHT22;7210;51.502;10.722;2022-08-19T11:56:40;25.60;5.00
14252;DHT22;7210;51.502;10.722;2022-08-19T11:59:08;25.70;4.70
14252;DHT22;7210;51.502;10.722;2022-08-19T12:01:38;25.70;5.40
14252;DHT22;7210;51.502;10.722;2022-08-19T12:04:06;25.90;9.00
14252;DHT22;7210;51.502;10.722;2022-08-19T12:06:33;26.00;10.80
14252;DHT22;7210;51.502;10.722;2022-08-19T12:09:06;26.20;14.30
14252;DHT22;7210;51.502;10.722;2022-08-19T12:11:35;26.20;14.20
14252;DHT22;7210;51.502;10.722;2022-08-19T12:14:03;26.10;12.80
14252;DHT22;7210;51.502;10.722;2022-08-19T12:16:31;26.20;15.20
14252;DHT22;7210;51.502;10.722;2022-08-19T12:19:01;26.20;15.00
14252;DHT22;7210;51.502;10.722;2022-08-19T12:21:33;26.20;14.70
14252;DHT22;7210;51.502;10.722;2022-08-19T12:24:03;26.30;15.50
14252;DHT22;7210;51.502;10.722;2022-08-19T12:26:37;26.20;16.10
14252;DHT22;7210;51.502;10.722;2022-08-19T12:29:05;26.20;16.50
14252;DHT22;7210;51.502;10.722;2022-08-19T12:31:35;26.20;17.90
14252;DHT22;7210;51.502;10.722;2022-08-19T12:34:10;26.20;15.70
14252;DHT22;7210;51.502;10.722;2022-08-19T12:36:38;26.30;16.30
14252;DHT22;7210;51.502;10.722;2022-08-19T12:39:05;26.30;18.90
14252;DHT22;7210;51.502;10.722;2022-08-19T12:41:34;26.40;20.00
14252;DHT22;7210;51.502;10.722;2022-08-19T12:44:02;26.50;22.10
14252;DHT22;7210;51.502;10.722;2022-08-19T12:46:31;26.60;21.90
14252;DHT22;7210;51.502;10.722;2022-08-19T12:48:58;26.90;25.40
14252;DHT22;7210;51.502;10.722;2022-08-19T12:51:27;26.80;25.80
14252;DHT22;7210;51.502;10.722;2022-08-19T12:53:54;26.70;25.50
14252;DHT22;7210;51.502;10.722;2022-08-19T12:56:21;26.60;24.90
14252;DHT22;7210;51.502;10.722;2022-08-19T12:58:48;26.60;26.20
14252;DHT22;7210;51.502;10.722;2022-08-19T13:01:17;26.60;23.50
14252;DHT22;7210;51.502;10.722;2022-08-19T13:03:46;26.60;26.00
14252;DHT22;7210;51.502;10.722;2022-08-19T13:06:15;26.60;25.50
14252;DHT22;7210;51.502;10.722;2022-08-19T13:08:46;26.70;27.20
14252;DHT22;7210;51.502;10.722;2022-08-19T13:11:16;26.80;26.20
14252;DHT22;7210;51.502;10.722;2022-08-19T13:13:47;26.80;28.40
14252;DHT22;7210;51.502;10.722;2022-08-19T13:16:18;26.60;25.90
14252;DHT22;7210;51.502;10.722;2022-08-19T13:18:47;26.70;26.10
14252;DHT22;7210;51.502;10.722;2022-08-19T13:21:20;26.70;28.10
14252;DHT22;7210;51.502;10.722;2022-08-19T13:23:54;26.80;29.50
14252;DHT22;7210;51.502;10.722;2022-08-19T13:26:21;26.90;30.00
14252;DHT22;7210;51.502;10.722;2022-08-19T13:28:49;26.80;31.80
14252;DHT22;7210;51.502;10.722;2022-08-19T13:31:35;26.90;32.90
14252;DHT22;7210;51.502;10.722;2022-08-19T13:34:28;26.80;31.40
14252;DHT22;7210;51.502;10.722;2022-08-19T13:36:59;26.90;33.40
14252;DHT22;7210;51.502;10.722;2022-08-19T13:39:31;27.00;35.60
14252;DHT22;7210;51.502;10.722;2022-08-19T13:42:02;27.00;33.50
14252;DHT22;7210;51.502;10.722;2022-08-19T13:44:31;26.90;34.10
14252;DHT22;7210;51.502;10.722;2022-08-19T13:47:01;26.90;32.90
14252;DHT22;7210;51.502;10.722;2022-08-19T13:49:31;26.90;34.70
14252;DHT22;7210;51.502;10.722;2022-08-19T13:51:58;27.20;38.50
14252;DHT22;7210;51.502;10.722;2022-08-19T13:54:26;27.30;40.70
14252;DHT22;7210;51.502;10.722;2022-08-19T13:56:55;27.30;40.70
14252;DHT22;7210;51.502;10.722;2022-08-19T13:59:22;27.20;38.80
14252;DHT22;7210;51.502;10.722;2022-08-19T14:01:49;27.30;40.30
14252;DHT22;7210;51.502;10.722;2022-08-19T14:04:16;27.40;41.70
14252;DHT22;7210;51.502;10.722;2022-08-19T14:06:43;27.30;44.30
14252;DHT22;7210;51.502;10.722;2022-08-19T14:09:11;27.30;48.10
14252;DHT22;7210;51.502;10.722;2022-08-19T14:11:38;27.20;45.60
14252;DHT22;7210;51.502;10.722;2022-08-19T14:14:07;27.20;44.10
14252;DHT22;7210;51.502;10.722;2022-08-19T14:16:34;27.20;43.80
14252;DHT22;7210;51.502;10.722;2022-08-19T14:19:01;27.10;44.70
14252;DHT22;7210;51.502;10.722;2022-08-19T14:21:28;27.00;43.70
14252;DHT22;7210;51.502;10.722;2022-08-19T14:23:56;27.10;43.70
14252;DHT22;7210;51.502;10.722;2022-08-19T14:26:24;27.10;43.70
14252;DHT22;7210;51.502;10.722;2022-08-19T14:28:52;27.10;66.30
14252;DHT22;7210;51.502;10.722;2022-08-19T14:31:24;27.00;45.80
14252;DHT22;7210;51.502;10.722;2022-08-19T14:33:51;27.10;45.50
14252;DHT22;7210;51.502;10.722;2022-08-19T14:36:24;27.10;46.50
14252;DHT22;7210;51.502;10.722;2022-08-19T14:38:51;27.20;46.00
14252;DHT22;7210;51.502;10.722;2022-08-19T14:41:20;27.20;47.90
14252;DHT22;7210;51.502;10.722;2022-08-19T14:43:51;27.30;51.70
14252;DHT22;7210;51.502;10.722;2022-08-19T14:46:21;27.40;51.80
14252;DHT22;7210;51.502;10.722;2022-08-19T14:48:50;27.40;53.10
14252;DHT22;7210;51.502;10.722;2022-08-19T14:51:19;27.60;53.10
14252;DHT22;7210;51.502;10.722;2022-08-19T14:53:48;27.60;54.00
14252;DHT22;7210;51.502;10.722;2022-08-19T14:56:19;27.70;56.30
14252;DHT22;7210;51.502;10.722;2022-08-19T14:58:48;27.70;58.30
14252;DHT22;7210;51.502;10.722;2022-08-19T15:01:17;27.70;57.70
14252;DHT22;7210;51.502;10.722;2022-08-19T15:03:46;27.70;58.30
14252;DHT22;7210;51.502;10.722;2022-08-19T15:06:15;27.50;56.70
14252;DHT22;7210;51.502;10.722;2022-08-19T15:08:45;27.40;55.80
14252;DHT22;7210;51.502;10.722;2022-08-19T15:11:15;27.40;56.80
14252;DHT22;7210;51.502;10.722;2022-08-19T15:13:47;27.50;57.90
14252;DHT22;7210;51.502;10.722;2022-08-19T15:16:15;27.50;56.80
14252;DHT22;7210;51.502;10.722;2022-08-19T15:18:45;27.60;57.50
14252;DHT22;7210;51.502;10.722;2022-08-19T15:21:17;27.50;57.80
14252;DHT22;7210;51.502;10.722;2022-08-19T15:23:45;27.30;56.10
14252;DHT22;7210;51.502;10.722;2022-08-19T15:26:14;27.20;56.20
14252;DHT22;7210;51.502;10.722;2022-08-19T15:28:42;27.20;56.20
14252;DHT22;7210;51.502;10.722;2022-08-19T15:31:09;27.20;59.50
14252;DHT22;7210;51.502;10.722;2022-08-19T15:33:38;27.20;58.30
14252;DHT22;7210;51.502;10.722;2022-08-19T15:36:07;27.20;59.30
14252;DHT22;7210;51.502;10.722;2022-08-19T15:38:36;27.20;56.40
14252;DHT22;7210;51.502;10.722;2022-08-19T15:41:05;27.20;58.80
14252;DHT22;7210;51.502;10.722;2022-08-19T15:43:46;27.20;57.40
14252;DHT22;7210;51.502;10.722;2022-08-19T15:46:16;27.30;62.00
14252;DHT22;7210;51.502;10.722;2022-08-19T15:48:45;27.40;62.40
14252;DHT22;7210;51.502;10.722;2022-08-19T15:51:12;27.50;63.20
14252;DHT22;7210;51.502;10.722;2022-08-19T15:53:41;27.60;65.60
14252;DHT22;7210;51.502;10.722;2022-08-19T15:56:09;27.70;69.20
14252;DHT22;7210;51.502;10.722;2022-08-19T15:58:37;27.80;67.70
14252;DHT22;7210;51.502;10.722;2022-08-19T16:01:22;27.90;71.00
14252;DHT22;7210;51.502;10.722;2022-08-19T16:04:08;28.20;76.90
14252;DHT22;7210;51.502;10.722;2022-08-19T16:06:55;28.20;78.50
14252;DHT22;7210;51.502;10.722;2022-08-19T16:09:27;28.30;99.90
14252;DHT22;7210;51.502;10.722;2022-08-19T16:11:56;28.30;99.90